Wallingford, Connecticut
Current Conditions -  °F | °C
As of 4:30 PM on Friday 24 Oct 2014 (Local Time) from KMMK Reporting Station
Overcast Overcast  
Wind Chill: 53°   Ceiling: 2800
Heat Index: 53°   Visibility: 10mi
Dew Point: 42°   Wind: 10mph
Humidity: 66%   Direction: 330°NNW
Pressure: 29.77"   Gusts: NA
Location:  41.46°N, 72.82°W
Report Text: KMMK 242030Z AUTO 33009KT 10SM BKN028 OVC040 12/06 A2977 RMK AO2 T01170056 TSNO
Loading
Personal Weather Stations






























Interactive Weather Map
Tropical Storm Tracking
New forecast layout! Learn more

10-Day Weather Forecast

Advertisements
Track Severe Weather on mobile